This is the latest recevied weather packets stored in our database for station/object SP6FIG-13. If no packets are shown the sender has not sent any weather packets the latest 10 day(s).
| Time | Temp. | Humidity | Pressure | Rain* | Wind** | Luminosity | Snow |
|---|---|---|---|---|---|---|---|
| 1777922666 | 23.33° C | 39% | 1013.2 hPa | - | - | - | - |
| 1777922366 | 23.33° C | 39% | 1013.3 hPa | - | - | - | - |
| 1777922076 | 23.33° C | 38% | 1012.6 hPa | - | - | - | - |
| 1777921766 | 23.33° C | 39% | 1012.5 hPa | - | - | - | - |
| 1777921466 | 22.78° C | 39% | 1013.5 hPa | - | - | - | - |
| 1777921166 | 23.33° C | 39% | 1013.2 hPa | - | - | - | - |
| 1777920866 | 23.33° C | 38% | 1013.2 hPa | - | - | - | - |
| 1777920566 | 23.33° C | 38% | 1013 hPa | - | - | - | - |
| 1777920266 | 23.33° C | 38% | 1012.6 hPa | - | - | - | - |
| 1777919966 | 22.78° C | 39% | 1011.4 hPa | - | - | - | - |
| 1777919666 | 21.67° C | 41% | 1013.5 hPa | - | - | - | - |
| 1777919366 | 22.22° C | 40% | 1014 hPa | - | - | - | - |
| 1777919066 | 22.78° C | 39% | 1014.6 hPa | - | - | - | - |
| 1777918766 | 23.89° C | 38% | 1012.8 hPa | - | - | - | - |
| 1777918466 | 23.89° C | 38% | 1012.8 hPa | - | - | - | - |
| 1777918166 | 23.89° C | 38% | 1012.7 hPa | - | - | - | - |
| 1777917866 | 23.89° C | 37% | 1012.9 hPa | - | - | - | - |
| 1777917566 | 23.89° C | 37% | 1012.5 hPa | - | - | - | - |
| 1777917266 | 23.89° C | 38% | 1012.5 hPa | - | - | - | - |
| 1777916966 | 23.89° C | 38% | 1012.6 hPa | - | - | - | - |
| 1777916666 | 23.89° C | 37% | 1012.6 hPa | - | - | - | - |
| 1777916366 | 23.89° C | 37% | 1012.5 hPa | - | - | - | - |
| 1777916066 | 23.89° C | 37% | 1012.6 hPa | - | - | - | - |
| 1777915466 | 23.89° C | 36% | 1012.5 hPa | - | - | - | - |
| 1777915166 | 23.89° C | 36% | 1012.3 hPa | - | - | - | - |
* Rain since midnight (hover to see other rain measurements)
** Current wind speed in m/s (hover to see current wind gust speed)